sensor_id;sensor_type;location;lat;lon;timestamp;P1;durP1;ratioP1;P2;durP2;ratioP2
18879;SDS011;9572;52.378;13.404;2024-01-30T00:02:17;22.80;;;10.37;;
18879;SDS011;9572;52.378;13.404;2024-01-30T00:04:44;19.77;;;9.33;;
18879;SDS011;9572;52.378;13.404;2024-01-30T00:07:11;14.97;;;8.37;;
18879;SDS011;9572;52.378;13.404;2024-01-30T00:09:38;18.23;;;8.10;;
18879;SDS011;9572;52.378;13.404;2024-01-30T00:12:05;14.60;;;7.37;;
18879;SDS011;9572;52.378;13.404;2024-01-30T00:14:32;14.57;;;7.30;;
18879;SDS011;9572;52.378;13.404;2024-01-30T00:17:01;17.07;;;8.43;;
18879;SDS011;9572;52.378;13.404;2024-01-30T00:19:28;13.77;;;7.43;;
18879;SDS011;9572;52.378;13.404;2024-01-30T00:21:55;16.27;;;7.27;;
18879;SDS011;9572;52.378;13.404;2024-01-30T00:24:22;16.87;;;8.07;;
18879;SDS011;9572;52.378;13.404;2024-01-30T00:26:48;12.40;;;6.43;;
18879;SDS011;9572;52.378;13.404;2024-01-30T00:29:16;13.00;;;7.50;;
18879;SDS011;9572;52.378;13.404;2024-01-30T00:31:44;13.47;;;6.50;;
18879;SDS011;9572;52.378;13.404;2024-01-30T00:34:13;11.23;;;6.23;;
18879;SDS011;9572;52.378;13.404;2024-01-30T00:36:39;13.80;;;6.47;;
18879;SDS011;9572;52.378;13.404;2024-01-30T00:39:06;11.67;;;6.60;;
18879;SDS011;9572;52.378;13.404;2024-01-30T00:41:34;13.03;;;6.87;;
18879;SDS011;9572;52.378;13.404;2024-01-30T00:44:01;12.37;;;7.13;;
18879;SDS011;9572;52.378;13.404;2024-01-30T00:46:28;14.60;;;7.27;;
18879;SDS011;9572;52.378;13.404;2024-01-30T00:48:55;13.10;;;6.47;;
18879;SDS011;9572;52.378;13.404;2024-01-30T00:51:23;13.97;;;6.20;;
18879;SDS011;9572;52.378;13.404;2024-01-30T00:53:50;12.97;;;6.90;;
18879;SDS011;9572;52.378;13.404;2024-01-30T00:56:17;10.77;;;5.87;;
18879;SDS011;9572;52.378;13.404;2024-01-30T00:58:45;12.47;;;6.17;;
18879;SDS011;9572;52.378;13.404;2024-01-30T01:01:12;11.07;;;5.97;;
18879;SDS011;9572;52.378;13.404;2024-01-30T01:03:39;12.27;;;5.83;;
18879;SDS011;9572;52.378;13.404;2024-01-30T01:06:08;14.23;;;6.53;;
18879;SDS011;9572;52.378;13.404;2024-01-30T01:08:37;11.33;;;5.70;;
18879;SDS011;9572;52.378;13.404;2024-01-30T01:11:04;12.03;;;6.13;;
18879;SDS011;9572;52.378;13.404;2024-01-30T01:13:30;14.17;;;7.10;;
18879;SDS011;9572;52.378;13.404;2024-01-30T01:15:57;11.67;;;5.60;;
18879;SDS011;9572;52.378;13.404;2024-01-30T01:18:24;9.37;;;5.47;;
18879;SDS011;9572;52.378;13.404;2024-01-30T01:20:52;12.13;;;6.37;;
18879;SDS011;9572;52.378;13.404;2024-01-30T01:23:19;13.57;;;6.10;;
18879;SDS011;9572;52.378;13.404;2024-01-30T01:25:47;10.50;;;6.23;;
18879;SDS011;9572;52.378;13.404;2024-01-30T01:28:14;9.73;;;5.87;;
18879;SDS011;9572;52.378;13.404;2024-01-30T01:30:41;10.93;;;5.43;;
18879;SDS011;9572;52.378;13.404;2024-01-30T01:33:07;9.13;;;5.27;;
18879;SDS011;9572;52.378;13.404;2024-01-30T01:35:34;10.80;;;6.03;;
18879;SDS011;9572;52.378;13.404;2024-01-30T01:38:01;13.30;;;6.13;;
18879;SDS011;9572;52.378;13.404;2024-01-30T01:40:29;9.30;;;5.43;;
18879;SDS011;9572;52.378;13.404;2024-01-30T01:42:57;13.27;;;6.27;;
18879;SDS011;9572;52.378;13.404;2024-01-30T01:45:24;10.77;;;5.50;;
18879;SDS011;9572;52.378;13.404;2024-01-30T01:47:51;7.60;;;5.10;;
18879;SDS011;9572;52.378;13.404;2024-01-30T01:50:18;12.27;;;5.63;;
18879;SDS011;9572;52.378;13.404;2024-01-30T01:52:47;11.90;;;6.50;;
18879;SDS011;9572;52.378;13.404;2024-01-30T01:55:15;9.07;;;5.37;;
18879;SDS011;9572;52.378;13.404;2024-01-30T01:57:43;10.63;;;5.97;;
18879;SDS011;9572;52.378;13.404;2024-01-30T02:00:12;9.10;;;5.57;;
18879;SDS011;9572;52.378;13.404;2024-01-30T02:02:40;10.63;;;5.60;;
18879;SDS011;9572;52.378;13.404;2024-01-30T02:05:09;10.30;;;6.23;;
18879;SDS011;9572;52.378;13.404;2024-01-30T02:07:36;15.53;;;6.30;;
18879;SDS011;9572;52.378;13.404;2024-01-30T02:10:04;10.47;;;6.33;;
18879;SDS011;9572;52.378;13.404;2024-01-30T02:12:31;11.60;;;6.03;;
18879;SDS011;9572;52.378;13.404;2024-01-30T02:14:58;10.73;;;6.53;;
18879;SDS011;9572;52.378;13.404;2024-01-30T02:17:26;11.93;;;6.47;;
18879;SDS011;9572;52.378;13.404;2024-01-30T02:19:53;12.90;;;6.30;;
18879;SDS011;9572;52.378;13.404;2024-01-30T02:22:21;12.73;;;6.37;;
18879;SDS011;9572;52.378;13.404;2024-01-30T02:24:49;11.60;;;6.40;;
18879;SDS011;9572;52.378;13.404;2024-01-30T02:27:16;11.97;;;5.93;;
18879;SDS011;9572;52.378;13.404;2024-01-30T02:29:43;11.30;;;5.93;;
18879;SDS011;9572;52.378;13.404;2024-01-30T02:32:10;10.20;;;6.00;;
18879;SDS011;9572;52.378;13.404;2024-01-30T02:34:37;10.97;;;6.27;;
18879;SDS011;9572;52.378;13.404;2024-01-30T02:37:04;12.90;;;5.90;;
18879;SDS011;9572;52.378;13.404;2024-01-30T02:39:32;9.57;;;5.50;;
18879;SDS011;9572;52.378;13.404;2024-01-30T02:41:59;10.27;;;5.20;;
18879;SDS011;9572;52.378;13.404;2024-01-30T02:44:26;9.20;;;5.47;;
18879;SDS011;9572;52.378;13.404;2024-01-30T02:46:53;10.67;;;5.73;;
18879;SDS011;9572;52.378;13.404;2024-01-30T02:49:20;9.83;;;5.80;;
18879;SDS011;9572;52.378;13.404;2024-01-30T02:51:47;11.60;;;6.20;;
18879;SDS011;9572;52.378;13.404;2024-01-30T02:54:14;10.50;;;5.73;;
18879;SDS011;9572;52.378;13.404;2024-01-30T02:56:42;11.50;;;6.00;;
18879;SDS011;9572;52.378;13.404;2024-01-30T02:59:09;9.27;;;5.30;;
18879;SDS011;9572;52.378;13.404;2024-01-30T03:01:42;11.33;;;6.03;;
18879;SDS011;9572;52.378;13.404;2024-01-30T03:04:09;9.83;;;5.70;;
18879;SDS011;9572;52.378;13.404;2024-01-30T03:06:36;9.97;;;5.90;;
18879;SDS011;9572;52.378;13.404;2024-01-30T03:09:03;9.73;;;6.17;;
18879;SDS011;9572;52.378;13.404;2024-01-30T03:11:30;9.27;;;5.23;;
18879;SDS011;9572;52.378;13.404;2024-01-30T03:13:58;8.90;;;5.33;;
18879;SDS011;9572;52.378;13.404;2024-01-30T03:16:25;9.67;;;5.60;;
18879;SDS011;9572;52.378;13.404;2024-01-30T03:18:52;8.83;;;5.17;;
18879;SDS011;9572;52.378;13.404;2024-01-30T03:21:19;10.13;;;5.77;;
18879;SDS011;9572;52.378;13.404;2024-01-30T03:23:46;13.27;;;6.00;;
18879;SDS011;9572;52.378;13.404;2024-01-30T03:26:13;12.07;;;5.93;;
18879;SDS011;9572;52.378;13.404;2024-01-30T03:28:40;11.63;;;6.10;;
18879;SDS011;9572;52.378;13.404;2024-01-30T03:31:08;11.20;;;5.83;;
18879;SDS011;9572;52.378;13.404;2024-01-30T03:33:36;11.97;;;6.33;;
18879;SDS011;9572;52.378;13.404;2024-01-30T03:36:04;11.67;;;6.07;;
18879;SDS011;9572;52.378;13.404;2024-01-30T03:38:32;11.20;;;6.47;;
18879;SDS011;9572;52.378;13.404;2024-01-30T03:40:58;10.00;;;5.73;;
18879;SDS011;9572;52.378;13.404;2024-01-30T03:43:25;13.33;;;6.90;;
18879;SDS011;9572;52.378;13.404;2024-01-30T03:45:52;13.17;;;6.53;;
18879;SDS011;9572;52.378;13.404;2024-01-30T03:48:21;9.10;;;5.70;;
18879;SDS011;9572;52.378;13.404;2024-01-30T03:50:48;10.73;;;6.03;;
18879;SDS011;9572;52.378;13.404;2024-01-30T03:53:15;14.27;;;6.20;;
18879;SDS011;9572;52.378;13.404;2024-01-30T03:55:41;11.70;;;6.20;;
18879;SDS011;9572;52.378;13.404;2024-01-30T03:58:08;10.07;;;6.03;;
18879;SDS011;9572;52.378;13.404;2024-01-30T04:00:35;9.57;;;5.63;;
18879;SDS011;9572;52.378;13.404;2024-01-30T04:03:02;14.43;;;6.07;;
18879;SDS011;9572;52.378;13.404;2024-01-30T04:05:30;10.57;;;5.97;;
18879;SDS011;9572;52.378;13.404;2024-01-30T04:07:57;12.60;;;6.70;;
18879;SDS011;9572;52.378;13.404;2024-01-30T04:10:24;11.53;;;6.03;;
18879;SDS011;9572;52.378;13.404;2024-01-30T04:12:51;12.07;;;6.20;;
18879;SDS011;9572;52.378;13.404;2024-01-30T04:15:19;10.20;;;6.37;;
18879;SDS011;9572;52.378;13.404;2024-01-30T04:17:46;12.33;;;6.20;;
18879;SDS011;9572;52.378;13.404;2024-01-30T04:20:13;10.30;;;6.07;;
18879;SDS011;9572;52.378;13.404;2024-01-30T04:22:43;10.30;;;5.97;;
18879;SDS011;9572;52.378;13.404;2024-01-30T04:25:10;10.33;;;6.43;;
18879;SDS011;9572;52.378;13.404;2024-01-30T04:27:37;11.00;;;6.17;;
18879;SDS011;9572;52.378;13.404;2024-01-30T04:30:04;11.67;;;6.03;;
18879;SDS011;9572;52.378;13.404;2024-01-30T04:32:32;13.37;;;6.30;;
18879;SDS011;9572;52.378;13.404;2024-01-30T04:34:59;11.23;;;6.57;;
18879;SDS011;9572;52.378;13.404;2024-01-30T04:37:26;11.00;;;6.17;;
18879;SDS011;9572;52.378;13.404;2024-01-30T04:39:54;11.27;;;5.93;;
18879;SDS011;9572;52.378;13.404;2024-01-30T04:42:21;13.57;;;6.67;;
18879;SDS011;9572;52.378;13.404;2024-01-30T04:44:48;11.63;;;6.70;;
18879;SDS011;9572;52.378;13.404;2024-01-30T04:47:15;11.83;;;6.57;;
18879;SDS011;9572;52.378;13.404;2024-01-30T04:49:42;11.97;;;6.80;;
18879;SDS011;9572;52.378;13.404;2024-01-30T04:52:09;11.50;;;6.63;;
18879;SDS011;9572;52.378;13.404;2024-01-30T04:54:36;13.93;;;5.90;;
18879;SDS011;9572;52.378;13.404;2024-01-30T04:57:04;11.67;;;5.87;;
18879;SDS011;9572;52.378;13.404;2024-01-30T04:59:34;10.50;;;6.07;;
18879;SDS011;9572;52.378;13.404;2024-01-30T05:02:01;8.70;;;5.50;;
18879;SDS011;9572;52.378;13.404;2024-01-30T05:04:28;9.93;;;5.63;;
18879;SDS011;9572;52.378;13.404;2024-01-30T05:06:55;11.33;;;6.30;;
18879;SDS011;9572;52.378;13.404;2024-01-30T05:09:22;14.37;;;6.67;;
18879;SDS011;9572;52.378;13.404;2024-01-30T05:11:49;12.73;;;5.93;;
18879;SDS011;9572;52.378;13.404;2024-01-30T05:14:17;10.73;;;6.10;;
18879;SDS011;9572;52.378;13.404;2024-01-30T05:16:44;13.43;;;6.57;;
18879;SDS011;9572;52.378;13.404;2024-01-30T05:19:12;12.87;;;6.27;;
18879;SDS011;9572;52.378;13.404;2024-01-30T05:21:39;12.97;;;7.03;;
18879;SDS011;9572;52.378;13.404;2024-01-30T05:24:06;11.03;;;6.03;;
18879;SDS011;9572;52.378;13.404;2024-01-30T05:26:35;11.80;;;6.30;;
18879;SDS011;9572;52.378;13.404;2024-01-30T05:29:02;12.60;;;6.67;;
18879;SDS011;9572;52.378;13.404;2024-01-30T05:31:30;9.77;;;6.27;;
18879;SDS011;9572;52.378;13.404;2024-01-30T05:33:57;12.83;;;6.60;;
18879;SDS011;9572;52.378;13.404;2024-01-30T05:36:24;14.03;;;7.57;;
18879;SDS011;9572;52.378;13.404;2024-01-30T05:38:51;12.07;;;6.60;;
18879;SDS011;9572;52.378;13.404;2024-01-30T05:41:18;14.20;;;6.77;;
18879;SDS011;9572;52.378;13.404;2024-01-30T05:43:46;13.10;;;7.10;;
18879;SDS011;9572;52.378;13.404;2024-01-30T05:46:13;15.37;;;6.80;;
18879;SDS011;9572;52.378;13.404;2024-01-30T05:48:41;15.60;;;7.07;;
18879;SDS011;9572;52.378;13.404;2024-01-30T05:51:08;14.07;;;6.50;;
18879;SDS011;9572;52.378;13.404;2024-01-30T05:53:35;11.13;;;6.60;;
18879;SDS011;9572;52.378;13.404;2024-01-30T05:56:02;12.40;;;6.47;;
18879;SDS011;9572;52.378;13.404;2024-01-30T05:58:29;10.93;;;6.73;;
18879;SDS011;9572;52.378;13.404;2024-01-30T06:00:57;15.30;;;6.83;;
18879;SDS011;9572;52.378;13.404;2024-01-30T06:03:23;13.80;;;6.80;;
18879;SDS011;9572;52.378;13.404;2024-01-30T06:05:52;11.67;;;6.60;;
18879;SDS011;9572;52.378;13.404;2024-01-30T06:08:19;11.40;;;6.17;;
18879;SDS011;9572;52.378;13.404;2024-01-30T06:10:45;12.00;;;6.40;;
18879;SDS011;9572;52.378;13.404;2024-01-30T06:13:13;14.80;;;7.50;;
18879;SDS011;9572;52.378;13.404;2024-01-30T06:15:40;12.77;;;6.53;;
18879;SDS011;9572;52.378;13.404;2024-01-30T06:18:07;16.17;;;7.17;;
18879;SDS011;9572;52.378;13.404;2024-01-30T06:20:33;13.80;;;7.67;;
18879;SDS011;9572;52.378;13.404;2024-01-30T06:23:02;14.33;;;7.57;;
18879;SDS011;9572;52.378;13.404;2024-01-30T06:25:29;11.13;;;6.83;;
18879;SDS011;9572;52.378;13.404;2024-01-30T06:27:56;11.83;;;6.87;;
18879;SDS011;9572;52.378;13.404;2024-01-30T06:30:23;9.60;;;6.40;;
18879;SDS011;9572;52.378;13.404;2024-01-30T06:32:50;11.60;;;6.37;;
18879;SDS011;9572;52.378;13.404;2024-01-30T06:35:16;13.67;;;6.70;;
18879;SDS011;9572;52.378;13.404;2024-01-30T06:37:43;13.93;;;6.87;;
18879;SDS011;9572;52.378;13.404;2024-01-30T06:40:12;10.73;;;6.13;;
18879;SDS011;9572;52.378;13.404;2024-01-30T06:42:39;11.70;;;7.03;;
18879;SDS011;9572;52.378;13.404;2024-01-30T06:45:06;10.73;;;6.63;;
18879;SDS011;9572;52.378;13.404;2024-01-30T06:47:34;13.13;;;6.77;;
18879;SDS011;9572;52.378;13.404;2024-01-30T06:50:01;15.13;;;7.37;;
18879;SDS011;9572;52.378;13.404;2024-01-30T06:52:28;12.43;;;6.73;;
18879;SDS011;9572;52.378;13.404;2024-01-30T06:54:55;12.80;;;6.90;;
18879;SDS011;9572;52.378;13.404;2024-01-30T06:57:23;10.93;;;6.57;;
18879;SDS011;9572;52.378;13.404;2024-01-30T06:59:52;13.90;;;7.13;;
18879;SDS011;9572;52.378;13.404;2024-01-30T07:02:22;11.80;;;6.70;;
18879;SDS011;9572;52.378;13.404;2024-01-30T07:04:49;16.87;;;7.97;;
18879;SDS011;9572;52.378;13.404;2024-01-30T07:07:16;16.17;;;7.20;;
18879;SDS011;9572;52.378;13.404;2024-01-30T07:09:43;15.93;;;7.67;;
18879;SDS011;9572;52.378;13.404;2024-01-30T07:12:10;14.47;;;8.07;;
18879;SDS011;9572;52.378;13.404;2024-01-30T07:14:38;11.27;;;6.70;;
18879;SDS011;9572;52.378;13.404;2024-01-30T07:17:05;13.87;;;7.47;;
18879;SDS011;9572;52.378;13.404;2024-01-30T07:19:32;15.87;;;7.73;;
18879;SDS011;9572;52.378;13.404;2024-01-30T07:22:00;19.20;;;9.13;;
18879;SDS011;9572;52.378;13.404;2024-01-30T07:24:26;13.67;;;7.20;;
18879;SDS011;9572;52.378;13.404;2024-01-30T07:26:53;17.53;;;7.90;;
18879;SDS011;9572;52.378;13.404;2024-01-30T07:29:20;12.30;;;7.47;;
18879;SDS011;9572;52.378;13.404;2024-01-30T07:31:48;15.90;;;7.47;;
18879;SDS011;9572;52.378;13.404;2024-01-30T07:34:15;13.70;;;7.13;;
18879;SDS011;9572;52.378;13.404;2024-01-30T07:36:42;13.63;;;7.93;;
18879;SDS011;9572;52.378;13.404;2024-01-30T07:39:09;14.90;;;8.03;;
18879;SDS011;9572;52.378;13.404;2024-01-30T07:41:36;13.63;;;7.30;;
18879;SDS011;9572;52.378;13.404;2024-01-30T07:44:03;13.33;;;7.73;;
18879;SDS011;9572;52.378;13.404;2024-01-30T07:46:30;15.63;;;7.20;;
18879;SDS011;9572;52.378;13.404;2024-01-30T07:48:58;14.63;;;7.67;;
18879;SDS011;9572;52.378;13.404;2024-01-30T07:51:25;14.65;;;9.02;;
18879;SDS011;9572;52.378;13.404;2024-01-30T07:53:53;14.73;;;8.70;;
18879;SDS011;9572;52.378;13.404;2024-01-30T07:56:23;17.17;;;8.03;;
18879;SDS011;9572;52.378;13.404;2024-01-30T07:58:50;16.67;;;8.17;;
18879;SDS011;9572;52.378;13.404;2024-01-30T08:01:17;20.20;;;8.00;;
18879;SDS011;9572;52.378;13.404;2024-01-30T08:03:44;13.47;;;7.40;;
18879;SDS011;9572;52.378;13.404;2024-01-30T08:06:13;17.20;;;7.20;;
18879;SDS011;9572;52.378;13.404;2024-01-30T08:08:40;13.43;;;7.97;;
18879;SDS011;9572;52.378;13.404;2024-01-30T08:11:07;14.47;;;6.90;;
18879;SDS011;9572;52.378;13.404;2024-01-30T08:13:33;12.07;;;7.13;;
18879;SDS011;9572;52.378;13.404;2024-01-30T08:16:00;16.93;;;7.93;;
18879;SDS011;9572;52.378;13.404;2024-01-30T08:18:27;12.57;;;6.80;;
18879;SDS011;9572;52.378;13.404;2024-01-30T08:20:54;15.77;;;7.43;;
18879;SDS011;9572;52.378;13.404;2024-01-30T08:23:22;12.47;;;7.40;;
18879;SDS011;9572;52.378;13.404;2024-01-30T08:25:49;14.43;;;7.90;;
18879;SDS011;9572;52.378;13.404;2024-01-30T08:28:16;12.17;;;7.60;;
18879;SDS011;9572;52.378;13.404;2024-01-30T08:30:43;13.77;;;7.60;;
18879;SDS011;9572;52.378;13.404;2024-01-30T08:33:10;12.67;;;8.07;;
18879;SDS011;9572;52.378;13.404;2024-01-30T08:35:36;14.27;;;7.10;;
18879;SDS011;9572;52.378;13.404;2024-01-30T08:38:03;14.50;;;7.97;;
18879;SDS011;9572;52.378;13.404;2024-01-30T08:40:31;15.13;;;7.47;;
18879;SDS011;9572;52.378;13.404;2024-01-30T08:42:58;16.20;;;7.00;;
18879;SDS011;9572;52.378;13.404;2024-01-30T08:45:25;13.67;;;7.23;;
18879;SDS011;9572;52.378;13.404;2024-01-30T08:47:52;13.07;;;6.87;;
18879;SDS011;9572;52.378;13.404;2024-01-30T08:50:19;12.47;;;7.00;;
18879;SDS011;9572;52.378;13.404;2024-01-30T08:52:46;15.83;;;7.20;;
18879;SDS011;9572;52.378;13.404;2024-01-30T08:55:13;14.23;;;7.20;;
18879;SDS011;9572;52.378;13.404;2024-01-30T08:57:41;15.03;;;7.57;;
18879;SDS011;9572;52.378;13.404;2024-01-30T09:00:08;15.63;;;7.37;;
18879;SDS011;9572;52.378;13.404;2024-01-30T09:02:36;13.13;;;7.53;;
18879;SDS011;9572;52.378;13.404;2024-01-30T09:05:03;14.10;;;7.47;;
18879;SDS011;9572;52.378;13.404;2024-01-30T09:07:30;13.33;;;7.43;;
18879;SDS011;9572;52.378;13.404;2024-01-30T09:09:57;19.27;;;8.53;;
18879;SDS011;9572;52.378;13.404;2024-01-30T09:12:24;14.57;;;7.53;;
18879;SDS011;9572;52.378;13.404;2024-01-30T09:14:52;19.20;;;7.43;;
18879;SDS011;9572;52.378;13.404;2024-01-30T09:17:19;14.43;;;7.63;;
18879;SDS011;9572;52.378;13.404;2024-01-30T09:19:46;11.63;;;6.87;;
18879;SDS011;9572;52.378;13.404;2024-01-30T09:22:13;19.30;;;7.73;;
18879;SDS011;9572;52.378;13.404;2024-01-30T09:24:40;15.53;;;7.80;;
18879;SDS011;9572;52.378;13.404;2024-01-30T09:27:07;10.83;;;6.50;;
18879;SDS011;9572;52.378;13.404;2024-01-30T09:29:33;13.30;;;7.00;;
18879;SDS011;9572;52.378;13.404;2024-01-30T09:32:03;15.60;;;6.57;;
18879;SDS011;9572;52.378;13.404;2024-01-30T09:34:31;10.83;;;6.03;;
18879;SDS011;9572;52.378;13.404;2024-01-30T09:36:58;12.60;;;6.80;;
18879;SDS011;9572;52.378;13.404;2024-01-30T09:39:25;14.47;;;6.87;;
18879;SDS011;9572;52.378;13.404;2024-01-30T09:41:54;13.57;;;6.30;;
18879;SDS011;9572;52.378;13.404;2024-01-30T09:44:27;11.83;;;6.23;;
18879;SDS011;9572;52.378;13.404;2024-01-30T09:46:55;13.27;;;6.10;;
18879;SDS011;9572;52.378;13.404;2024-01-30T09:49:25;10.43;;;5.23;;
18879;SDS011;9572;52.378;13.404;2024-01-30T09:51:52;11.80;;;6.10;;
18879;SDS011;9572;52.378;13.404;2024-01-30T09:54:20;10.73;;;6.23;;
18879;SDS011;9572;52.378;13.404;2024-01-30T09:56:48;12.37;;;6.07;;
18879;SDS011;9572;52.378;13.404;2024-01-30T09:59:15;9.37;;;5.50;;
18879;SDS011;9572;52.378;13.404;2024-01-30T10:01:42;12.73;;;6.10;;
18879;SDS011;9572;52.378;13.404;2024-01-30T10:04:09;9.57;;;5.50;;
18879;SDS011;9572;52.378;13.404;2024-01-30T10:06:38;10.23;;;5.93;;
18879;SDS011;9572;52.378;13.404;2024-01-30T10:09:06;12.10;;;5.97;;
18879;SDS011;9572;52.378;13.404;2024-01-30T10:11:34;9.10;;;5.83;;
18879;SDS011;9572;52.378;13.404;2024-01-30T10:14:02;10.13;;;5.57;;
18879;SDS011;9572;52.378;13.404;2024-01-30T10:16:29;11.77;;;5.47;;
18879;SDS011;9572;52.378;13.404;2024-01-30T10:18:55;11.63;;;5.80;;
18879;SDS011;9572;52.378;13.404;2024-01-30T10:21:22;9.53;;;6.00;;
18879;SDS011;9572;52.378;13.404;2024-01-30T10:23:51;10.80;;;4.97;;
18879;SDS011;9572;52.378;13.404;2024-01-30T10:26:18;11.23;;;4.87;;
18879;SDS011;9572;52.378;13.404;2024-01-30T10:28:45;9.03;;;5.20;;
18879;SDS011;9572;52.378;13.404;2024-01-30T10:31:15;7.33;;;4.97;;
18879;SDS011;9572;52.378;13.404;2024-01-30T10:33:43;8.97;;;5.30;;
18879;SDS011;9572;52.378;13.404;2024-01-30T10:36:11;7.33;;;5.17;;
18879;SDS011;9572;52.378;13.404;2024-01-30T10:38:41;11.13;;;5.50;;
18879;SDS011;9572;52.378;13.404;2024-01-30T10:41:13;10.17;;;5.10;;
18879;SDS011;9572;52.378;13.404;2024-01-30T10:43:44;8.37;;;4.73;;
18879;SDS011;9572;52.378;13.404;2024-01-30T10:46:18;9.40;;;5.10;;
18879;SDS011;9572;52.378;13.404;2024-01-30T10:48:49;10.17;;;4.63;;
18879;SDS011;9572;52.378;13.404;2024-01-30T10:51:22;10.07;;;4.87;;
18879;SDS011;9572;52.378;13.404;2024-01-30T10:53:50;11.20;;;5.30;;
18879;SDS011;9572;52.378;13.404;2024-01-30T10:56:18;10.13;;;5.57;;
18879;SDS011;9572;52.378;13.404;2024-01-30T10:58:48;7.80;;;5.00;;
18879;SDS011;9572;52.378;13.404;2024-01-30T11:01:16;8.20;;;4.20;;
18879;SDS011;9572;52.378;13.404;2024-01-30T11:03:43;10.03;;;5.20;;
18879;SDS011;9572;52.378;13.404;2024-01-30T11:06:10;11.57;;;5.03;;
18879;SDS011;9572;52.378;13.404;2024-01-30T11:08:39;11.37;;;5.10;;
18879;SDS011;9572;52.378;13.404;2024-01-30T11:11:08;6.80;;;4.83;;
18879;SDS011;9572;52.378;13.404;2024-01-30T11:13:37;8.30;;;4.70;;
18879;SDS011;9572;52.378;13.404;2024-01-30T11:16:04;10.17;;;5.53;;
18879;SDS011;9572;52.378;13.404;2024-01-30T11:18:32;10.03;;;5.33;;
18879;SDS011;9572;52.378;13.404;2024-01-30T11:21:04;8.40;;;5.07;;
18879;SDS011;9572;52.378;13.404;2024-01-30T11:23:33;8.50;;;5.27;;
18879;SDS011;9572;52.378;13.404;2024-01-30T11:26:00;11.83;;;5.63;;
18879;SDS011;9572;52.378;13.404;2024-01-30T11:28:31;10.03;;;5.20;;
18879;SDS011;9572;52.378;13.404;2024-01-30T11:31:05;9.97;;;5.40;;
18879;SDS011;9572;52.378;13.404;2024-01-30T11:33:33;12.60;;;5.90;;
18879;SDS011;9572;52.378;13.404;2024-01-30T11:36:00;7.97;;;5.33;;
18879;SDS011;9572;52.378;13.404;2024-01-30T11:38:28;11.97;;;5.73;;
18879;SDS011;9572;52.378;13.404;2024-01-30T11:40:55;9.17;;;5.40;;
18879;SDS011;9572;52.378;13.404;2024-01-30T11:43:23;7.93;;;5.20;;
18879;SDS011;9572;52.378;13.404;2024-01-30T11:45:50;10.20;;;5.70;;
18879;SDS011;9572;52.378;13.404;2024-01-30T11:48:19;11.30;;;5.83;;
18879;SDS011;9572;52.378;13.404;2024-01-30T11:50:46;8.27;;;5.40;;
18879;SDS011;9572;52.378;13.404;2024-01-30T11:53:13;10.80;;;5.60;;
18879;SDS011;9572;52.378;13.404;2024-01-30T11:55:41;11.10;;;5.70;;
18879;SDS011;9572;52.378;13.404;2024-01-30T11:58:08;10.93;;;6.30;;
18879;SDS011;9572;52.378;13.404;2024-01-30T12:00:35;12.00;;;6.47;;
18879;SDS011;9572;52.378;13.404;2024-01-30T12:03:01;9.97;;;5.57;;
18879;SDS011;9572;52.378;13.404;2024-01-30T12:05:31;10.87;;;5.73;;
18879;SDS011;9572;52.378;13.404;2024-01-30T12:07:58;10.23;;;6.07;;
18879;SDS011;9572;52.378;13.404;2024-01-30T12:10:25;11.83;;;6.00;;
18879;SDS011;9572;52.378;13.404;2024-01-30T12:12:52;10.93;;;6.20;;
18879;SDS011;9572;52.378;13.404;2024-01-30T12:15:21;11.50;;;5.77;;
18879;SDS011;9572;52.378;13.404;2024-01-30T12:17:48;10.53;;;6.57;;
18879;SDS011;9572;52.378;13.404;2024-01-30T12:20:17;13.40;;;6.00;;
18879;SDS011;9572;52.378;13.404;2024-01-30T12:22:48;11.60;;;6.27;;
18879;SDS011;9572;52.378;13.404;2024-01-30T12:25:15;10.53;;;5.90;;
18879;SDS011;9572;52.378;13.404;2024-01-30T12:27:43;11.98;;;6.90;;
18879;SDS011;9572;52.378;13.404;2024-01-30T12:30:12;10.57;;;6.13;;
18879;SDS011;9572;52.378;13.404;2024-01-30T12:32:40;11.03;;;6.27;;
18879;SDS011;9572;52.378;13.404;2024-01-30T12:35:09;10.03;;;5.97;;
18879;SDS011;9572;52.378;13.404;2024-01-30T12:37:36;10.03;;;5.83;;
18879;SDS011;9572;52.378;13.404;2024-01-30T12:40:05;12.23;;;6.20;;
18879;SDS011;9572;52.378;13.404;2024-01-30T12:42:34;10.53;;;5.70;;
18879;SDS011;9572;52.378;13.404;2024-01-30T12:45:01;11.63;;;5.83;;
18879;SDS011;9572;52.378;13.404;2024-01-30T12:47:29;11.70;;;6.03;;
18879;SDS011;9572;52.378;13.404;2024-01-30T12:49:56;11.83;;;5.83;;
18879;SDS011;9572;52.378;13.404;2024-01-30T12:52:23;9.53;;;5.73;;
18879;SDS011;9572;52.378;13.404;2024-01-30T12:54:50;10.40;;;6.10;;
18879;SDS011;9572;52.378;13.404;2024-01-30T12:57:19;10.63;;;5.77;;
18879;SDS011;9572;52.378;13.404;2024-01-30T12:59:46;9.53;;;5.23;;
18879;SDS011;9572;52.378;13.404;2024-01-30T13:02:13;11.77;;;6.20;;
18879;SDS011;9572;52.378;13.404;2024-01-30T13:04:40;11.43;;;6.43;;
18879;SDS011;9572;52.378;13.404;2024-01-30T13:07:08;13.93;;;5.90;;
18879;SDS011;9572;52.378;13.404;2024-01-30T13:09:35;10.50;;;5.93;;
18879;SDS011;9572;52.378;13.404;2024-01-30T13:12:03;14.67;;;6.50;;
18879;SDS011;9572;52.378;13.404;2024-01-30T13:14:31;10.37;;;6.20;;
18879;SDS011;9572;52.378;13.404;2024-01-30T13:16:58;9.67;;;5.93;;
18879;SDS011;9572;52.378;13.404;2024-01-30T13:19:25;11.77;;;6.20;;
18879;SDS011;9572;52.378;13.404;2024-01-30T13:21:52;9.60;;;5.43;;
18879;SDS011;9572;52.378;13.404;2024-01-30T13:24:19;11.17;;;5.87;;
18879;SDS011;9572;52.378;13.404;2024-01-30T13:26:46;11.63;;;5.67;;
18879;SDS011;9572;52.378;13.404;2024-01-30T13:29:14;11.93;;;5.87;;
18879;SDS011;9572;52.378;13.404;2024-01-30T13:31:42;15.73;;;5.97;;
18879;SDS011;9572;52.378;13.404;2024-01-30T13:34:11;15.53;;;6.70;;
18879;SDS011;9572;52.378;13.404;2024-01-30T13:36:38;21.73;;;6.27;;
18879;SDS011;9572;52.378;13.404;2024-01-30T13:39:06;12.73;;;5.00;;
18879;SDS011;9572;52.378;13.404;2024-01-30T13:41:35;19.27;;;5.73;;
18879;SDS011;9572;52.378;13.404;2024-01-30T13:44:03;9.33;;;5.23;;
18879;SDS011;9572;52.378;13.404;2024-01-30T13:46:30;14.40;;;6.43;;
18879;SDS011;9572;52.378;13.404;2024-01-30T13:48:58;10.27;;;5.83;;
18879;SDS011;9572;52.378;13.404;2024-01-30T13:51:25;8.93;;;5.50;;
18879;SDS011;9572;52.378;13.404;2024-01-30T13:53:52;13.97;;;6.07;;
18879;SDS011;9572;52.378;13.404;2024-01-30T13:56:19;9.77;;;6.30;;
18879;SDS011;9572;52.378;13.404;2024-01-30T13:58:46;12.43;;;6.17;;
18879;SDS011;9572;52.378;13.404;2024-01-30T14:01:14;10.70;;;6.37;;
18879;SDS011;9572;52.378;13.404;2024-01-30T14:03:40;11.33;;;5.83;;
18879;SDS011;9572;52.378;13.404;2024-01-30T14:06:09;10.90;;;5.50;;
18879;SDS011;9572;52.378;13.404;2024-01-30T14:08:36;9.67;;;5.47;;
18879;SDS011;9572;52.378;13.404;2024-01-30T14:11:03;9.63;;;5.37;;
18879;SDS011;9572;52.378;13.404;2024-01-30T14:13:30;12.63;;;5.63;;
18879;SDS011;9572;52.378;13.404;2024-01-30T14:15:57;11.20;;;5.53;;
18879;SDS011;9572;52.378;13.404;2024-01-30T14:18:25;11.07;;;5.63;;
18879;SDS011;9572;52.378;13.404;2024-01-30T14:20:52;12.00;;;5.63;;
18879;SDS011;9572;52.378;13.404;2024-01-30T14:23:20;12.07;;;6.13;;
18879;SDS011;9572;52.378;13.404;2024-01-30T14:25:47;12.57;;;6.13;;
18879;SDS011;9572;52.378;13.404;2024-01-30T14:28:16;12.53;;;6.30;;
18879;SDS011;9572;52.378;13.404;2024-01-30T14:30:43;8.57;;;5.40;;
18879;SDS011;9572;52.378;13.404;2024-01-30T14:33:10;12.23;;;5.50;;
18879;SDS011;9572;52.378;13.404;2024-01-30T14:35:37;9.10;;;5.53;;
18879;SDS011;9572;52.378;13.404;2024-01-30T14:38:04;11.60;;;5.60;;